Brierley Hill, United Kingdom
Current Conditions -  °F | °C
As of 6:50 AM on Thursday 27 Nov 2014 (Local Time) from EGBB Reporting Station
Drizzle Drizzle  
Wind Chill: 45°   Ceiling: 100
Heat Index: 45°   Visibility: 1.3mi
Dew Point: 45°   Wind: 0mph
Humidity: 100%   Direction: NA
Pressure: 29.62"   Gusts: NA
Location:  52.47°N, 2.1°W
Report Text: EGBB 270650Z 00000KT 2200 -DZ BR BKN001 OVC005 07/07 Q1003 REDZ
Loading
Personal Weather Stations






























Interactive Weather Map New forecast layout! Learn more

10-Day Weather Forecast

Advertisements
Track Severe Weather on mobile